sensor_id;sensor_type;location;lat;lon;timestamp;pressure;altitude;pressure_sealevel;temperature;humidity
34073;BME280;20346;52.702;16.886;2022-08-21T00:02:36;100594.66;;;20.20;73.24
34073;BME280;20346;52.702;16.886;2022-08-21T00:05:23;100586.41;;;20.19;73.28
34073;BME280;20346;52.702;16.886;2022-08-21T00:08:09;100585.47;;;20.20;73.29
34073;BME280;20346;52.702;16.886;2022-08-21T00:10:54;100577.13;;;20.21;73.30
34073;BME280;20346;52.702;16.886;2022-08-21T00:13:39;100577.69;;;20.19;73.24
34073;BME280;20346;52.702;16.886;2022-08-21T00:16:24;100576.45;;;20.17;73.28
34073;BME280;20346;52.702;16.886;2022-08-21T00:19:09;100574.47;;;20.13;73.28
34073;BME280;20346;52.702;16.886;2022-08-21T00:21:54;100574.47;;;20.13;73.31
34073;BME280;20346;52.702;16.886;2022-08-21T00:24:40;100575.41;;;20.12;73.30
34073;BME280;20346;52.702;16.886;2022-08-21T00:27:25;100578.88;;;20.13;73.35
34073;BME280;20346;52.702;16.886;2022-08-21T00:30:12;100584.20;;;20.11;73.33
34073;BME280;20346;52.702;16.886;2022-08-21T00:32:59;100588.78;;;20.08;73.39
34073;BME280;20346;52.702;16.886;2022-08-21T00:35:44;100582.30;;;20.06;73.40
34073;BME280;20346;52.702;16.886;2022-08-21T00:38:29;100583.15;;;20.07;73.46
34073;BME280;20346;52.702;16.886;2022-08-21T00:41:14;100576.20;;;20.06;73.45
34073;BME280;20346;52.702;16.886;2022-08-21T00:43:58;100579.97;;;20.09;73.49
34073;BME280;20346;52.702;16.886;2022-08-21T00:46:44;100579.13;;;20.08;73.45
34073;BME280;20346;52.702;16.886;2022-08-21T00:49:28;100576.97;;;20.08;73.49
34073;BME280;20346;52.702;16.886;2022-08-21T00:52:17;100576.50;;;20.08;73.54
34073;BME280;20346;52.702;16.886;2022-08-21T00:55:06;100574.34;;;20.08;73.55
34073;BME280;20346;52.702;16.886;2022-08-21T00:57:55;100576.04;;;20.09;73.54
34073;BME280;20346;52.702;16.886;2022-08-21T01:00:44;100578.58;;;20.10;73.62
34073;BME280;20346;52.702;16.886;2022-08-21T01:03:33;100575.11;;;20.10;73.63
34073;BME280;20346;52.702;16.886;2022-08-21T01:06:19;100569.09;;;20.08;73.66
34073;BME280;20346;52.702;16.886;2022-08-21T01:09:04;100566.85;;;20.09;73.70
34073;BME280;20346;52.702;16.886;2022-08-21T01:11:50;100568.45;;;20.11;73.69
34073;BME280;20346;52.702;16.886;2022-08-21T01:14:36;100571.55;;;20.11;73.72
34073;BME280;20346;52.702;16.886;2022-08-21T01:17:21;100564.61;;;20.10;73.76
34073;BME280;20346;52.702;16.886;2022-08-21T01:20:09;100559.44;;;20.08;73.74
34073;BME280;20346;52.702;16.886;2022-08-21T01:22:55;100559.06;;;20.07;73.78
34073;BME280;20346;52.702;16.886;2022-08-21T01:25:40;100560.38;;;20.07;73.82
34073;BME280;20346;52.702;16.886;2022-08-21T01:28:26;100556.52;;;20.06;73.87
34073;BME280;20346;52.702;16.886;2022-08-21T01:31:15;100559.99;;;20.06;73.87
34073;BME280;20346;52.702;16.886;2022-08-21T01:34:02;100554.36;;;20.05;73.88
34073;BME280;20346;52.702;16.886;2022-08-21T01:36:47;100558.38;;;20.04;73.96
34073;BME280;20346;52.702;16.886;2022-08-21T01:39:33;100559.14;;;20.06;73.96
34073;BME280;20346;52.702;16.886;2022-08-21T01:42:19;100559.52;;;20.07;73.96
34073;BME280;20346;52.702;16.886;2022-08-21T01:45:06;100557.37;;;20.06;73.96
34073;BME280;20346;52.702;16.886;2022-08-21T01:47:52;100554.73;;;20.06;74.02
34073;BME280;20346;52.702;16.886;2022-08-21T01:50:36;100549.95;;;20.06;74.02
34073;BME280;20346;52.702;16.886;2022-08-21T01:53:21;100556.81;;;20.08;74.04
34073;BME280;20346;52.702;16.886;2022-08-21T01:56:09;100549.88;;;20.07;74.06
34073;BME280;20346;52.702;16.886;2022-08-21T01:58:55;100553.81;;;20.07;74.09
34073;BME280;20346;52.702;16.886;2022-08-21T02:01:40;100551.19;;;20.07;74.13
34073;BME280;20346;52.702;16.886;2022-08-21T02:04:25;100547.71;;;20.07;74.14
34073;BME280;20346;52.702;16.886;2022-08-21T02:07:11;100550.25;;;20.08;74.16
34073;BME280;20346;52.702;16.886;2022-08-21T02:09:55;100550.72;;;20.08;74.21
34073;BME280;20346;52.702;16.886;2022-08-21T02:12:41;100550.42;;;20.05;74.20
34073;BME280;20346;52.702;16.886;2022-08-21T02:15:27;100560.92;;;20.05;74.27
34073;BME280;20346;52.702;16.886;2022-08-21T02:18:14;100553.34;;;20.08;74.31
34073;BME280;20346;52.702;16.886;2022-08-21T02:20:59;100553.72;;;20.09;74.31
34073;BME280;20346;52.702;16.886;2022-08-21T02:23:44;100545.84;;;20.09;74.27
34073;BME280;20346;52.702;16.886;2022-08-21T02:26:29;100550.16;;;20.10;74.29
34073;BME280;20346;52.702;16.886;2022-08-21T02:29:14;100546.02;;;20.06;74.30
34073;BME280;20346;52.702;16.886;2022-08-21T02:31:59;100541.58;;;19.99;74.35
34073;BME280;20346;52.702;16.886;2022-08-21T02:34:44;100532.56;;;19.96;74.38
34073;BME280;20346;52.702;16.886;2022-08-21T02:37:29;100536.20;;;19.94;74.40
34073;BME280;20346;52.702;16.886;2022-08-21T02:40:16;100535.61;;;19.89;74.43
34073;BME280;20346;52.702;16.886;2022-08-21T02:43:05;100527.45;;;19.86;74.46
34073;BME280;20346;52.702;16.886;2022-08-21T02:45:51;100524.15;;;19.82;74.46
34073;BME280;20346;52.702;16.886;2022-08-21T02:48:37;100517.46;;;19.77;74.44
34073;BME280;20346;52.702;16.886;2022-08-21T02:51:22;100526.47;;;19.73;74.55
34073;BME280;20346;52.702;16.886;2022-08-21T02:54:08;100518.38;;;19.69;74.57
34073;BME280;20346;52.702;16.886;2022-08-21T02:56:53;100524.56;;;19.68;74.59
34073;BME280;20346;52.702;16.886;2022-08-21T02:59:38;100525.19;;;19.64;74.60
34073;BME280;20346;52.702;16.886;2022-08-21T03:02:25;100528.31;;;19.55;74.61
34073;BME280;20346;52.702;16.886;2022-08-21T03:05:10;100530.86;;;19.48;74.67
34073;BME280;20346;52.702;16.886;2022-08-21T03:07:55;100530.17;;;19.44;74.81
34073;BME280;20346;52.702;16.886;2022-08-21T03:10:44;100526.88;;;19.41;74.84
34073;BME280;20346;52.702;16.886;2022-08-21T03:13:31;100530.67;;;19.35;74.83
34073;BME280;20346;52.702;16.886;2022-08-21T03:16:17;100527.20;;;19.35;74.86
34073;BME280;20346;52.702;16.886;2022-08-21T03:19:03;100535.69;;;19.31;74.89
34073;BME280;20346;52.702;16.886;2022-08-21T03:21:48;100527.91;;;19.30;74.93
34073;BME280;20346;52.702;16.886;2022-08-21T03:24:33;100532.84;;;19.27;74.92
34073;BME280;20346;52.702;16.886;2022-08-21T03:27:19;100536.78;;;19.27;74.96
34073;BME280;20346;52.702;16.886;2022-08-21T03:30:06;100530.69;;;19.27;75.02
34073;BME280;20346;52.702;16.886;2022-08-21T03:32:52;100531.54;;;19.27;75.04
34073;BME280;20346;52.702;16.886;2022-08-21T03:35:37;100533.23;;;19.28;75.04
34073;BME280;20346;52.702;16.886;2022-08-21T03:38:21;100538.02;;;19.29;75.12
34073;BME280;20346;52.702;16.886;2022-08-21T03:41:07;100532.98;;;19.33;75.11
34073;BME280;20346;52.702;16.886;2022-08-21T03:43:53;100543.39;;;19.34;75.17
34073;BME280;20346;52.702;16.886;2022-08-21T03:46:38;100546.09;;;19.33;75.13
34073;BME280;20346;52.702;16.886;2022-08-21T03:49:24;100547.88;;;19.32;75.17
34073;BME280;20346;52.702;16.886;2022-08-21T03:52:10;100560.60;;;19.31;75.22
34073;BME280;20346;52.702;16.886;2022-08-21T03:54:55;100558.74;;;19.33;75.19
34073;BME280;20346;52.702;16.886;2022-08-21T03:57:40;100564.45;;;19.33;75.23
34073;BME280;20346;52.702;16.886;2022-08-21T04:00:26;100565.77;;;19.33;75.28
34073;BME280;20346;52.702;16.886;2022-08-21T04:03:11;100564.45;;;19.33;75.26
34073;BME280;20346;52.702;16.886;2022-08-21T04:05:56;100578.95;;;19.31;75.32
34073;BME280;20346;52.702;16.886;2022-08-21T04:08:41;100571.25;;;19.28;75.33
34073;BME280;20346;52.702;16.886;2022-08-21T04:11:27;100572.64;;;19.27;75.39
34073;BME280;20346;52.702;16.886;2022-08-21T04:14:13;100571.49;;;19.24;75.45
34073;BME280;20346;52.702;16.886;2022-08-21T04:16:58;100572.34;;;19.24;75.46
34073;BME280;20346;52.702;16.886;2022-08-21T04:19:44;100578.43;;;19.25;75.80
34073;BME280;20346;52.702;16.886;2022-08-21T04:22:29;100582.94;;;19.23;75.46
34073;BME280;20346;52.702;16.886;2022-08-21T04:25:15;100581.02;;;19.17;75.44
34073;BME280;20346;52.702;16.886;2022-08-21T04:28:00;100579.48;;;19.13;75.53
34073;BME280;20346;52.702;16.886;2022-08-21T04:30:46;100584.88;;;19.10;75.62
34073;BME280;20346;52.702;16.886;2022-08-21T04:33:31;100579.03;;;19.05;75.65
34073;BME280;20346;52.702;16.886;2022-08-21T04:36:16;100578.18;;;19.05;75.74
34073;BME280;20346;52.702;16.886;2022-08-21T04:39:02;100576.48;;;19.04;75.74
34073;BME280;20346;52.702;16.886;2022-08-21T04:41:47;100582.19;;;19.03;75.82
34073;BME280;20346;52.702;16.886;2022-08-21T04:44:33;100575.95;;;19.06;75.90
34073;BME280;20346;52.702;16.886;2022-08-21T04:47:19;100575.95;;;19.06;75.82
34073;BME280;20346;52.702;16.886;2022-08-21T04:50:05;100576.87;;;19.05;75.90
34073;BME280;20346;52.702;16.886;2022-08-21T04:52:50;100579.03;;;19.05;75.96
34073;BME280;20346;52.702;16.886;2022-08-21T04:55:35;100593.83;;;19.06;75.98
34073;BME280;20346;52.702;16.886;2022-08-21T04:58:22;100591.28;;;19.05;76.02
34073;BME280;20346;52.702;16.886;2022-08-21T05:01:13;100592.13;;;19.05;76.04
34073;BME280;20346;52.702;16.886;2022-08-21T05:04:01;100594.75;;;19.05;76.04
34073;BME280;20346;52.702;16.886;2022-08-21T05:06:48;100601.16;;;19.08;76.08
34073;BME280;20346;52.702;16.886;2022-08-21T05:09:34;100608.16;;;19.08;76.13
34073;BME280;20346;52.702;16.886;2022-08-21T05:12:21;100618.11;;;19.10;76.17
34073;BME280;20346;52.702;16.886;2022-08-21T05:15:07;100630.67;;;19.12;76.21
34073;BME280;20346;52.702;16.886;2022-08-21T05:17:52;100639.23;;;19.15;76.21
34073;BME280;20346;52.702;16.886;2022-08-21T05:20:37;100638.00;;;19.14;76.27
34073;BME280;20346;52.702;16.886;2022-08-21T05:23:22;100637.30;;;19.10;76.25
34073;BME280;20346;52.702;16.886;2022-08-21T05:26:07;100633.45;;;19.09;76.39
34073;BME280;20346;52.702;16.886;2022-08-21T05:28:52;100630.37;;;19.09;76.42
34073;BME280;20346;52.702;16.886;2022-08-21T05:31:37;100630.06;;;19.07;76.40
34073;BME280;20346;52.702;16.886;2022-08-21T05:34:23;100625.59;;;19.00;76.44
34073;BME280;20346;52.702;16.886;2022-08-21T05:37:10;100632.61;;;19.00;76.52
34073;BME280;20346;52.702;16.886;2022-08-21T05:39:56;100637.30;;;19.02;76.59
34073;BME280;20346;52.702;16.886;2022-08-21T05:42:41;100638.16;;;19.02;76.58
34073;BME280;20346;52.702;16.886;2022-08-21T05:45:29;100636.77;;;19.04;76.63
34073;BME280;20346;52.702;16.886;2022-08-21T05:48:19;100645.02;;;19.05;76.68
34073;BME280;20346;52.702;16.886;2022-08-21T05:51:08;100640.55;;;19.07;76.71
34073;BME280;20346;52.702;16.886;2022-08-21T05:53:55;100642.93;;;19.11;76.74
34073;BME280;20346;52.702;16.886;2022-08-21T05:56:40;100637.77;;;19.10;76.77
34073;BME280;20346;52.702;16.886;2022-08-21T05:59:27;100648.56;;;19.12;76.73
34073;BME280;20346;52.702;16.886;2022-08-21T06:02:12;100652.03;;;19.13;76.73
34073;BME280;20346;52.702;16.886;2022-08-21T06:04:57;100651.48;;;19.15;76.77
34073;BME280;20346;52.702;16.886;2022-08-21T06:07:42;100653.11;;;19.17;76.83
34073;BME280;20346;52.702;16.886;2022-08-21T06:10:27;100644.16;;;19.22;76.86
34073;BME280;20346;52.702;16.886;2022-08-21T06:13:13;100642.84;;;19.22;76.92
34073;BME280;20346;52.702;16.886;2022-08-21T06:16:11;100641.08;;;19.22;76.91
34073;BME280;20346;52.702;16.886;2022-08-21T06:18:57;100637.88;;;19.24;76.92
34073;BME280;20346;52.702;16.886;2022-08-21T06:21:42;100634.56;;;19.29;76.88
34073;BME280;20346;52.702;16.886;2022-08-21T06:24:27;100622.30;;;19.30;76.95
34073;BME280;20346;52.702;16.886;2022-08-21T06:27:12;100624.07;;;19.29;76.88
34073;BME280;20346;52.702;16.886;2022-08-21T06:29:58;100626.69;;;19.29;76.94
34073;BME280;20346;52.702;16.886;2022-08-21T06:32:43;100618.28;;;19.31;77.01
34073;BME280;20346;52.702;16.886;2022-08-21T06:35:29;100615.12;;;19.33;77.04
34073;BME280;20346;52.702;16.886;2022-08-21T06:38:14;100608.95;;;19.34;76.95
34073;BME280;20346;52.702;16.886;2022-08-21T06:40:59;100606.79;;;19.34;77.01
34073;BME280;20346;52.702;16.886;2022-08-21T06:43:45;100608.02;;;19.35;77.00
34073;BME280;20346;52.702;16.886;2022-08-21T06:46:30;100611.11;;;19.35;77.01
34073;BME280;20346;52.702;16.886;2022-08-21T06:49:15;100598.38;;;19.36;77.02
34073;BME280;20346;52.702;16.886;2022-08-21T06:52:01;100598.30;;;19.37;77.09
34073;BME280;20346;52.702;16.886;2022-08-21T06:54:46;100595.98;;;19.40;77.05
34073;BME280;20346;52.702;16.886;2022-08-21T06:57:31;100589.97;;;19.38;76.93
34073;BME280;20346;52.702;16.886;2022-08-21T07:00:16;100593.05;;;19.37;77.01
34073;BME280;20346;52.702;16.886;2022-08-21T07:03:01;100586.88;;;19.38;77.03
34073;BME280;20346;52.702;16.886;2022-08-21T07:05:47;100589.42;;;19.40;77.05
34073;BME280;20346;52.702;16.886;2022-08-21T07:08:32;100596.91;;;19.39;77.00
34073;BME280;20346;52.702;16.886;2022-08-21T07:11:20;100597.37;;;19.38;76.93
34073;BME280;20346;52.702;16.886;2022-08-21T07:14:06;100596.14;;;19.37;76.99
34073;BME280;20346;52.702;16.886;2022-08-21T07:16:51;100590.98;;;19.35;77.06
34073;BME280;20346;52.702;16.886;2022-08-21T07:19:36;100591.44;;;19.35;77.10
34073;BME280;20346;52.702;16.886;2022-08-21T07:22:21;100584.88;;;19.35;77.08
34073;BME280;20346;52.702;16.886;2022-08-21T07:25:08;100589.75;;;19.34;77.14
34073;BME280;20346;52.702;16.886;2022-08-21T07:27:53;100595.38;;;19.35;77.13
34073;BME280;20346;52.702;16.886;2022-08-21T07:30:39;100603.46;;;19.39;77.17
34073;BME280;20346;52.702;16.886;2022-08-21T07:33:25;100610.41;;;19.40;77.19
34073;BME280;20346;52.702;16.886;2022-08-21T07:36:12;100622.05;;;19.43;77.19
34073;BME280;20346;52.702;16.886;2022-08-21T07:38:57;100631.91;;;19.46;77.25
34073;BME280;20346;52.702;16.886;2022-08-21T07:41:43;100625.58;;;19.50;77.27
34073;BME280;20346;52.702;16.886;2022-08-21T07:44:27;100637.33;;;19.52;77.24
34073;BME280;20346;52.702;16.886;2022-08-21T07:47:12;100633.23;;;19.55;77.30
34073;BME280;20346;52.702;16.886;2022-08-21T07:49:57;100641.33;;;19.59;77.26
34073;BME280;20346;52.702;16.886;2022-08-21T07:52:43;100643.33;;;19.63;77.30
34073;BME280;20346;52.702;16.886;2022-08-21T07:55:28;100645.78;;;19.66;77.27
34073;BME280;20346;52.702;16.886;2022-08-21T07:58:13;100646.55;;;19.68;77.26
34073;BME280;20346;52.702;16.886;2022-08-21T08:00:58;100646.09;;;19.68;77.30
34073;BME280;20346;52.702;16.886;2022-08-21T08:03:44;100650.87;;;19.69;77.28
34073;BME280;20346;52.702;16.886;2022-08-21T08:06:29;100645.16;;;19.69;77.48
34073;BME280;20346;52.702;16.886;2022-08-21T08:09:15;100648.62;;;19.70;77.27
34073;BME280;20346;52.702;16.886;2022-08-21T08:12:01;100639.91;;;19.69;77.32
34073;BME280;20346;52.702;16.886;2022-08-21T08:14:46;100644.53;;;19.73;77.34
34073;BME280;20346;52.702;16.886;2022-08-21T08:17:31;100645.00;;;19.72;77.27
34073;BME280;20346;52.702;16.886;2022-08-21T08:20:18;100647.70;;;19.71;77.34
34073;BME280;20346;52.702;16.886;2022-08-21T08:23:04;100655.03;;;19.73;77.33
34073;BME280;20346;52.702;16.886;2022-08-21T08:25:50;100656.99;;;19.76;77.36
34073;BME280;20346;52.702;16.886;2022-08-21T08:28:35;100658.69;;;19.77;77.25
34073;BME280;20346;52.702;16.886;2022-08-21T08:31:20;100654.83;;;19.76;77.31
34073;BME280;20346;52.702;16.886;2022-08-21T08:34:06;100656.83;;;19.79;77.37
34073;BME280;20346;52.702;16.886;2022-08-21T08:36:51;100643.16;;;19.81;77.34
34073;BME280;20346;52.702;16.886;2022-08-21T08:39:36;100641.30;;;19.83;77.33
34073;BME280;20346;52.702;16.886;2022-08-21T08:42:25;100639.91;;;19.85;77.36
34073;BME280;20346;52.702;16.886;2022-08-21T08:45:18;100646.30;;;19.88;77.34
34073;BME280;20346;52.702;16.886;2022-08-21T08:48:08;100640.42;;;19.92;77.41
34073;BME280;20346;52.702;16.886;2022-08-21T08:50:56;100643.19;;;19.97;77.39
34073;BME280;20346;52.702;16.886;2022-08-21T08:53:55;100642.64;;;19.99;77.34
34073;BME280;20346;52.702;16.886;2022-08-21T08:56:39;100640.31;;;20.02;77.41
34073;BME280;20346;52.702;16.886;2022-08-21T08:59:26;100634.51;;;20.04;77.41
34073;BME280;20346;52.702;16.886;2022-08-21T09:02:15;100640.82;;;20.08;77.50
34073;BME280;20346;52.702;16.886;2022-08-21T09:05:01;100650.61;;;20.13;77.49
34073;BME280;20346;52.702;16.886;2022-08-21T09:11:04;100652.42;;;20.20;77.42
34073;BME280;20346;52.702;16.886;2022-08-21T09:24:02;100641.97;;;20.34;77.49
34073;BME280;20346;52.702;16.886;2022-08-21T09:29:55;100642.73;;;20.36;77.45
34073;BME280;20346;52.702;16.886;2022-08-21T09:32:42;100647.06;;;20.37;77.50
34073;BME280;20346;52.702;16.886;2022-08-21T09:35:27;100649.69;;;20.37;77.43
34073;BME280;20346;52.702;16.886;2022-08-21T09:38:22;100650.23;;;20.35;77.49
34073;BME280;20346;52.702;16.886;2022-08-21T09:41:05;100646.67;;;20.36;77.47
34073;BME280;20346;52.702;16.886;2022-08-21T09:43:53;100655.87;;;20.36;77.53
34073;BME280;20346;52.702;16.886;2022-08-21T09:46:49;100661.06;;;20.38;77.52
34073;BME280;20346;52.702;16.886;2022-08-21T09:49:34;100659.29;;;20.38;77.50
34073;BME280;20346;52.702;16.886;2022-08-21T09:52:23;100652.64;;;20.40;77.49
34073;BME280;20346;52.702;16.886;2022-08-21T09:55:15;100660.73;;;20.44;77.53
34073;BME280;20346;52.702;16.886;2022-08-21T09:58:05;100665.43;;;20.46;77.52
34073;BME280;20346;52.702;16.886;2022-08-21T10:00:58;100662.72;;;20.47;77.54
34073;BME280;20346;52.702;16.886;2022-08-21T10:03:44;100669.58;;;20.50;77.67
34073;BME280;20346;52.702;16.886;2022-08-21T10:06:29;100669.49;;;20.52;77.54
34073;BME280;20346;52.702;16.886;2022-08-21T10:09:20;100665.08;;;20.52;77.51
34073;BME280;20346;52.702;16.886;2022-08-21T10:15:41;100665.08;;;20.52;77.49
34073;BME280;20346;52.702;16.886;2022-08-21T10:22:07;100666.86;;;20.52;77.57
34073;BME280;20346;52.702;16.886;2022-08-21T10:25:14;100661.99;;;20.53;77.58
34073;BME280;20346;52.702;16.886;2022-08-21T10:34:21;100672.24;;;20.57;77.66
34073;BME280;20346;52.702;16.886;2022-08-21T10:37:46;100671.60;;;20.61;77.66
34073;BME280;20346;52.702;16.886;2022-08-21T10:50:08;100668.28;;;20.73;77.63
34073;BME280;20346;52.702;16.886;2022-08-21T10:56:18;100688.72;;;20.68;77.62
34073;BME280;20346;52.702;16.886;2022-08-21T10:59:31;100694.98;;;20.65;77.61
34073;BME280;20346;52.702;16.886;2022-08-21T11:02:25;100692.45;;;20.64;77.59
34073;BME280;20346;52.702;16.886;2022-08-21T11:05:22;100685.13;;;20.62;77.62
34073;BME280;20346;52.702;16.886;2022-08-21T11:08:12;100684.27;;;20.61;77.62
34073;BME280;20346;52.702;16.886;2022-08-21T11:11:36;100684.27;;;20.61;77.59
34073;BME280;20346;52.702;16.886;2022-08-21T11:17:12;100686.69;;;20.57;77.57
34073;BME280;20346;52.702;16.886;2022-08-21T11:20:15;100681.05;;;20.56;77.59
34073;BME280;20346;52.702;16.886;2022-08-21T11:23:22;100676.27;;;20.56;77.61
34073;BME280;20346;52.702;16.886;2022-08-21T11:26:17;100669.79;;;20.54;77.54
34073;BME280;20346;52.702;16.886;2022-08-21T11:29:19;100663.94;;;20.49;77.46
34073;BME280;20346;52.702;16.886;2022-08-21T11:36:00;100657.34;;;20.42;77.49
34073;BME280;20346;52.702;16.886;2022-08-21T11:38:53;100670.31;;;20.36;77.53
34073;BME280;20346;52.702;16.886;2022-08-21T11:41:49;100666.38;;;20.36;77.53
34073;BME280;20346;52.702;16.886;2022-08-21T11:44:56;100673.41;;;20.36;77.52
34073;BME280;20346;52.702;16.886;2022-08-21T11:50:52;100667.94;;;20.32;77.48
34073;BME280;20346;52.702;16.886;2022-08-21T11:53:46;100669.05;;;20.28;77.46
34073;BME280;20346;52.702;16.886;2022-08-21T11:56:36;100668.78;;;20.25;77.44
34073;BME280;20346;52.702;16.886;2022-08-21T11:59:32;100666.32;;;20.22;77.40
34073;BME280;20346;52.702;16.886;2022-08-21T12:02:20;100664.33;;;20.19;77.44
34073;BME280;20346;52.702;16.886;2022-08-21T12:05:09;100663.95;;;20.18;77.52
34073;BME280;20346;52.702;16.886;2022-08-21T12:08:08;100658.40;;;20.15;77.49
34073;BME280;20346;52.702;16.886;2022-08-21T12:11:22;100662.50;;;20.12;77.46
34073;BME280;20346;52.702;16.886;2022-08-21T12:17:03;100654.96;;;20.06;77.50
34073;BME280;20346;52.702;16.886;2022-08-21T12:19:45;100649.11;;;20.01;77.50
34073;BME280;20346;52.702;16.886;2022-08-21T12:22:53;100641.70;;;20.00;77.56
34073;BME280;20346;52.702;16.886;2022-08-21T12:28:50;100633.03;;;20.07;77.69
34073;BME280;20346;52.702;16.886;2022-08-21T12:31:35;100635.11;;;20.09;77.66
34073;BME280;20346;52.702;16.886;2022-08-21T12:34:23;100639.42;;;20.10;77.64
34073;BME280;20346;52.702;16.886;2022-08-21T12:37:26;100649.12;;;20.16;77.67
34073;BME280;20346;52.702;16.886;2022-08-21T12:40:30;100653.66;;;20.22;77.75
34073;BME280;20346;52.702;16.886;2022-08-21T12:43:29;100651.24;;;20.26;77.69
34073;BME280;20346;52.702;16.886;2022-08-21T12:46:24;100660.90;;;20.25;77.61
34073;BME280;20346;52.702;16.886;2022-08-21T12:49:14;100663.78;;;20.21;77.68
34073;BME280;20346;52.702;16.886;2022-08-21T12:52:22;100670.68;;;20.14;77.57
34073;BME280;20346;52.702;16.886;2022-08-21T12:55:15;100678.13;;;20.06;77.53
34073;BME280;20346;52.702;16.886;2022-08-21T12:58:01;100684.33;;;19.97;77.57
34073;BME280;20346;52.702;16.886;2022-08-21T13:01:05;100688.13;;;19.91;77.55
34073;BME280;20346;52.702;16.886;2022-08-21T13:04:13;100684.98;;;19.84;77.54
34073;BME280;20346;52.702;16.886;2022-08-21T13:07:07;100689.71;;;19.78;77.52
34073;BME280;20346;52.702;16.886;2022-08-21T13:10:20;100687.74;;;19.74;77.52
34073;BME280;20346;52.702;16.886;2022-08-21T13:13:16;100692.30;;;19.71;77.53
34073;BME280;20346;52.702;16.886;2022-08-21T13:16:07;100695.25;;;19.65;77.45
34073;BME280;20346;52.702;16.886;2022-08-21T13:19:02;100713.93;;;19.59;77.44
34073;BME280;20346;52.702;16.886;2022-08-21T13:21:50;100706.45;;;19.51;77.44
34073;BME280;20346;52.702;16.886;2022-08-21T13:24:37;100710.05;;;19.48;77.45
34073;BME280;20346;52.702;16.886;2022-08-21T13:27:29;100713.21;;;19.46;77.51
34073;BME280;20346;52.702;16.886;2022-08-21T13:30:20;100711.44;;;19.47;77.51
34073;BME280;20346;52.702;16.886;2022-08-21T13:33:06;100714.14;;;19.45;77.43
34073;BME280;20346;52.702;16.886;2022-08-21T13:38:47;100717.14;;;19.46;77.44
34073;BME280;20346;52.702;16.886;2022-08-21T13:41:35;100724.16;;;19.46;77.45
34073;BME280;20346;52.702;16.886;2022-08-21T13:44:31;100726.70;;;19.47;77.50
34073;BME280;20346;52.702;16.886;2022-08-21T13:47:27;100725.48;;;19.46;77.51
34073;BME280;20346;52.702;16.886;2022-08-21T13:50:14;100736.81;;;19.46;77.42
34073;BME280;20346;52.702;16.886;2022-08-21T13:53:04;100732.66;;;19.42;77.33
34073;BME280;20346;52.702;16.886;2022-08-21T13:55:51;100733.81;;;19.37;77.24
34073;BME280;20346;52.702;16.886;2022-08-21T13:58:45;100741.59;;;19.30;77.23
34073;BME280;20346;52.702;16.886;2022-08-21T14:04:45;100745.84;;;19.24;77.29
34073;BME280;20346;52.702;16.886;2022-08-21T14:07:41;100752.50;;;19.22;77.28
34073;BME280;20346;52.702;16.886;2022-08-21T14:10:27;100755.80;;;19.17;77.15
34073;BME280;20346;52.702;16.886;2022-08-21T14:13:40;100753.02;;;19.11;77.13
34073;BME280;20346;52.702;16.886;2022-08-21T14:16:27;100745.22;;;19.01;77.06
34073;BME280;20346;52.702;16.886;2022-08-21T14:19:27;100744.81;;;18.92;77.01
34073;BME280;20346;52.702;16.886;2022-08-21T14:28:24;100760.66;;;18.80;76.95
34073;BME280;20346;52.702;16.886;2022-08-21T14:31:20;100764.34;;;18.76;76.95
34073;BME280;20346;52.702;16.886;2022-08-21T14:34:06;100771.05;;;18.73;76.92
34073;BME280;20346;52.702;16.886;2022-08-21T14:36:52;100776.67;;;18.74;76.90
34073;BME280;20346;52.702;16.886;2022-08-21T14:39:37;100776.45;;;18.70;76.89
34073;BME280;20346;52.702;16.886;2022-08-21T14:42:23;100775.68;;;18.68;76.83
34073;BME280;20346;52.702;16.886;2022-08-21T14:45:15;100779.68;;;18.66;76.74
34073;BME280;20346;52.702;16.886;2022-08-21T14:48:02;100780.28;;;18.63;76.77
34073;BME280;20346;52.702;16.886;2022-08-21T14:50:48;100775.61;;;18.59;76.75
34073;BME280;20346;52.702;16.886;2022-08-21T14:53:33;100776.99;;;18.58;76.74
34073;BME280;20346;52.702;16.886;2022-08-21T14:56:19;100784.47;;;18.57;76.75
34073;BME280;20346;52.702;16.886;2022-08-21T14:59:06;100783.61;;;18.56;76.74
34073;BME280;20346;52.702;16.886;2022-08-21T15:01:53;100778.05;;;18.53;76.69
34073;BME280;20346;52.702;16.886;2022-08-21T15:04:38;100782.13;;;18.50;76.71
34073;BME280;20346;52.702;16.886;2022-08-21T15:07:23;100784.22;;;18.52;76.79
34073;BME280;20346;52.702;16.886;2022-08-21T15:10:08;100786.83;;;18.52;76.79
34073;BME280;20346;52.702;16.886;2022-08-21T15:12:53;100791.08;;;18.55;76.82
34073;BME280;20346;52.702;16.886;2022-08-21T15:15:41;100787.47;;;18.58;76.82
34073;BME280;20346;52.702;16.886;2022-08-21T15:18:29;100792.99;;;18.62;76.83
34073;BME280;20346;52.702;16.886;2022-08-21T15:21:14;100795.01;;;18.65;76.82
34073;BME280;20346;52.702;16.886;2022-08-21T15:23:59;100797.02;;;18.69;76.89
34073;BME280;20346;52.702;16.886;2022-08-21T15:26:45;100799.96;;;18.71;76.87
34073;BME280;20346;52.702;16.886;2022-08-21T15:29:32;100801.17;;;18.73;76.84
34073;BME280;20346;52.702;16.886;2022-08-21T15:32:23;100798.09;;;18.73;76.87
34073;BME280;20346;52.702;16.886;2022-08-21T15:35:12;100801.09;;;18.74;76.91
34073;BME280;20346;52.702;16.886;2022-08-21T15:37:57;100798.41;;;18.76;76.89
34073;BME280;20346;52.702;16.886;2022-08-21T15:40:42;100793.55;;;18.77;76.94